METAR Data
IDs: Format: Raw Decoded Include TAF

Data at: 0856 UTC 13 Aug 2022

ETSL 130820Z AUTO 03005KT 9999 // ////// 19/11 Q1017 ///